Time;durP1;ratioP1;P1;durP2;ratioP2;P2;SDS_P1;SDS_P2;PMS_P1;PMS_P2;Temp;Humidity;BMP_temperature;BMP_pressure;BME280_temperature;BME280_humidity;BME280_pressure;Samples;Min_cycle;Max_cycle;Signal;HPM_P1;HPM_P2
2021/11/07 00:01:28;;;;;;;17.77;3.50;;;;;;;11.11;98.19;101761.75;4956983;28;20058;-65
2021/11/07 00:04:07;;;;;;;20.25;3.50;;;;;;;11.18;97.46;101767.72;4974692;28;20043;-64
2021/11/07 00:06:38;;;;;;;16.20;3.67;;;;;;;11.28;96.92;101764.75;4975318;28;20058;-64
2021/11/07 00:11:59;;;;;;;17.90;3.78;;;;;;;11.38;95.77;101748.50;4915097;29;20527;-63
2021/11/07 00:14:26;;;;;;;15.90;3.40;;;;;;;11.42;95.47;101761.63;4915656;29;20127;-63
2021/11/07 00:16:52;;;;;;;14.75;3.38;;;;;;;11.44;95.52;101754.47;4915354;29;20049;-64
2021/11/07 00:19:33;;;;;;;16.23;4.10;;;;;;;11.47;95.43;101756.16;4915276;29;20064;-68
2021/11/07 00:22:12;;;;;;;14.50;4.00;;;;;;;11.50;95.30;101745.47;4915086;29;20121;-66
2021/11/07 00:37:43;;;;;;;14.05;4.30;;;;;;;11.66;95.01;101736.97;4915289;29;20047;-65
2021/11/07 00:43:00;;;;;;;19.25;4.65;;;;;;;11.74;94.29;101750.81;4915347;29;20095;-65
2021/11/07 00:50:45;;;;;;;20.38;4.50;;;;;;;11.77;95.07;101750.72;4974262;28;20042;-64
2021/11/07 00:55:48;;;;;;;19.42;4.88;;;;;;;11.75;95.66;101736.63;4958933;28;20156;-64
2021/11/07 00:58:16;;;;;;;;;;;;;;;11.74;95.90;101726.94;4955525;29;20027;-69
2021/11/07 01:00:52;;;;;;;16.80;4.57;;;;;;;11.74;95.79;101729.59;4954878;29;19926;-64
2021/11/07 01:03:19;;;;;;;22.45;4.90;;;;;;;11.70;96.29;101735.94;4954888;29;20035;-65
2021/11/07 01:05:45;;;;;;;17.65;4.95;;;;;;;11.73;96.08;101736.69;4957062;28;20034;-65
2021/11/07 01:08:10;;;;;;;20.13;5.43;;;;;;;11.75;95.72;101718.94;4954790;29;20028;-65
2021/11/07 01:10:36;;;;;;;19.27;4.97;;;;;;;11.77;95.67;101717.09;4955142;29;20114;-64
2021/11/07 01:13:02;;;;;;;20.25;4.90;;;;;;;11.80;95.58;101719.66;4954931;29;20066;-65
2021/11/07 01:15:29;;;;;;;18.75;5.75;;;;;;;11.82;95.56;101718.72;4956875;28;20118;-64
2021/11/07 01:17:55;;;;;;;18.75;5.20;;;;;;;11.80;96.04;101724.06;4954096;28;20654;-64
2021/11/07 01:20:25;;;;;;;22.13;5.75;;;;;;;11.76;96.68;101733.06;4954797;29;20090;-64
2021/11/07 01:22:57;;;;;;;19.67;5.40;;;;;;;11.72;96.99;101734.09;4954588;29;20031;-64
2021/11/07 01:25:23;;;;;;;20.52;6.15;;;;;;;11.70;97.52;101715.59;4954916;28;20499;-65
2021/11/07 01:27:50;;;;;;;17.45;5.88;;;;;;;11.72;97.70;101705.78;4956165;28;20027;-65
2021/11/07 01:30:22;;;;;;;16.73;5.72;;;;;;;11.74;97.21;101711.00;4954591;29;20031;-65
2021/11/07 01:32:56;;;;;;;23.45;6.88;;;;;;;11.73;97.43;101707.50;4954668;29;20031;-64
2021/11/07 01:35:30;;;;;;;17.35;6.00;;;;;;;11.75;97.00;101703.03;4954327;29;20031;-65
2021/11/07 01:38:41;;;;;;;22.10;5.45;;;;;;;11.77;96.99;101705.63;4956861;28;20039;-66
2021/11/07 01:40:58;;;;;;;21.48;6.60;;;;;;;11.81;96.93;101699.28;4946363;29;20042;-65
2021/11/07 01:43:24;;;;;;;23.75;5.75;;;;;;;11.83;96.42;101729.28;4954546;29;20027;-64
2021/11/07 01:45:56;;;;;;;20.85;6.30;;;;;;;11.85;96.13;101694.72;4954536;29;20027;-66
2021/11/07 01:48:26;;;;;;;21.42;6.13;;;;;;;11.86;96.14;101709.72;4956701;28;20023;-65
2021/11/07 01:50:53;;;;;;;18.63;6.45;;;;;;;11.82;96.31;101708.97;4954156;29;20030;-69
2021/11/07 01:53:28;;;;;;;17.88;5.72;;;;;;;11.82;96.22;101695.69;4954222;29;20028;-64
2021/11/07 01:55:56;;;;;;;18.50;5.10;;;;;;;11.87;96.09;101703.50;4954497;29;20471;-65
2021/11/07 01:58:24;;;;;;;23.60;5.20;;;;;;;11.87;95.65;101695.53;4956615;28;20058;-65
2021/11/07 02:00:50;;;;;;;23.55;5.82;;;;;;;11.90;95.53;101693.63;4954404;29;20027;-65
2021/11/07 02:03:16;;;;;;;15.40;4.97;;;;;;;11.82;95.89;101693.03;4954117;29;20379;-64
2021/11/07 02:05:41;;;;;;;17.80;5.38;;;;;;;11.80;95.94;101673.66;4954156;29;20027;-69
2021/11/07 02:08:07;;;;;;;13.73;5.22;;;;;;;11.87;95.32;101675.16;4954971;28;20167;-63
2021/11/07 02:10:35;;;;;;;16.30;5.32;;;;;;;11.92;94.94;101667.03;4955345;28;20067;-65
2021/11/07 02:13:01;;;;;;;16.23;4.85;;;;;;;11.89;94.76;101673.34;4954521;29;20026;-66
2021/11/07 02:15:26;;;;;;;19.60;4.97;;;;;;;11.90;95.02;101658.25;4954324;29;20031;-65
2021/11/07 02:17:52;;;;;;;14.05;4.53;;;;;;;11.94;94.79;101667.84;4954160;29;20079;-65
2021/11/07 02:20:25;;;;;;;18.65;5.15;;;;;;;11.96;94.76;101664.22;4956323;28;20399;-65
2021/11/07 02:22:51;;;;;;;18.15;5.25;;;;;;;11.92;94.58;101654.63;4953825;29;20028;-65
2021/11/07 02:25:17;;;;;;;13.82;4.60;;;;;;;11.92;94.72;101651.13;4954165;29;20111;-65
2021/11/07 02:27:43;;;;;;;15.77;5.07;;;;;;;11.89;94.92;101661.84;4955723;28;20161;-64
2021/11/07 02:30:12;;;;;;;14.85;4.40;;;;;;;11.89;94.25;101669.78;4960066;28;20038;-65
2021/11/07 02:32:38;;;;;;;18.73;4.80;;;;;;;11.88;94.02;101660.97;4976855;28;20042;-65
2021/11/07 02:35:04;;;;;;;19.25;5.10;;;;;;;11.89;94.18;101656.53;4977336;28;20027;-66
2021/11/07 02:37:29;;;;;;;19.60;4.80;;;;;;;11.89;93.74;101649.44;4976556;28;20034;-65
2021/11/07 02:39:55;;;;;;;15.93;4.63;;;;;;;11.84;94.15;101651.41;4959986;28;20130;-65
2021/11/07 02:42:20;;;;;;;17.35;4.50;;;;;;;11.85;94.13;101644.31;4966922;28;20019;-64
2021/11/07 02:44:47;;;;;;;16.40;4.88;;;;;;;11.87;94.54;101651.28;4976786;28;20158;-65
2021/11/07 02:47:14;;;;;;;18.83;5.13;;;;;;;11.84;94.33;101653.19;4976907;28;20023;-65
2021/11/07 02:49:42;;;;;;;11.25;4.20;;;;;;;11.72;94.15;101660.66;4975269;28;20114;-65
2021/11/07 02:52:10;;;;;;;15.95;4.45;;;;;;;11.57;93.02;101653.25;4974710;28;20026;-64
2021/11/07 02:54:37;;;;;;;12.63;3.85;;;;;;;11.56;90.15;101659.47;4956333;28;20086;-64
2021/11/07 02:57:06;;;;;;;14.48;3.95;;;;;;;11.45;90.46;101650.13;4976653;28;20031;-65
2021/11/07 02:59:34;;;;;;;14.82;3.53;;;;;;;11.38;90.60;101645.09;4974962;28;20027;-64
2021/11/07 03:02:02;;;;;;;8.20;3.33;;;;;;;11.32;90.57;101640.88;4975752;28;20089;-65
2021/11/07 03:04:27;;;;;;;17.30;3.63;;;;;;;11.26;91.38;101655.19;4974841;28;20050;-64
2021/11/07 03:06:53;;;;;;;10.43;3.50;;;;;;;11.26;91.43;101665.81;4976222;28;20019;-65
2021/11/07 03:09:21;;;;;;;12.65;3.58;;;;;;;11.24;91.20;101672.09;4976018;28;20030;-64
2021/11/07 03:11:48;;;;;;;16.15;4.03;;;;;;;11.24;90.12;101674.72;4974571;28;20365;-68
2021/11/07 03:14:17;;;;;;;12.10;3.10;;;;;;;11.23;87.86;101675.69;4974573;28;20062;-65
2021/11/07 03:16:44;;;;;;;13.80;2.88;;;;;;;11.23;85.20;101662.44;4976123;28;20085;-63
2021/11/07 03:19:10;;;;;;;10.80;2.55;;;;;;;11.19;84.28;101666.97;4958856;28;20458;-65
2021/11/07 03:21:36;;;;;;;15.93;3.25;;;;;;;11.19;80.59;101666.06;4974321;28;20027;-65
2021/11/07 03:24:02;;;;;;;11.75;3.13;;;;;;;11.19;81.06;101685.53;4976270;28;20033;-65
2021/11/07 03:26:29;;;;;;;11.20;2.50;;;;;;;11.15;78.83;101683.88;4974304;28;20479;-65
2021/11/07 03:29:00;;;;;;;12.07;2.78;;;;;;;11.04;78.90;101665.69;4975850;28;20055;-64
2021/11/07 03:31:37;;;;;;;16.60;3.00;;;;;;;11.02;76.96;101661.34;4974265;28;20038;-67
2021/11/07 03:34:09;;;;;;;16.02;2.85;;;;;;;11.02;75.27;101675.47;4975993;28;20490;-65
2021/11/07 03:36:44;;;;;;;19.88;3.00;;;;;;;11.02;75.43;101661.34;4974429;28;20442;-64
2021/11/07 03:39:11;;;;;;;14.15;2.83;;;;;;;11.02;72.78;101662.22;4975483;28;20027;-65
2021/11/07 03:41:39;;;;;;;14.38;3.15;;;;;;;11.04;71.33;101656.88;4975250;28;20052;-65
2021/11/07 03:44:04;;;;;;;13.20;2.97;;;;;;;11.05;72.03;101661.25;4974797;28;20029;-64
2021/11/07 03:46:30;;;;;;;7.05;1.95;;;;;;;11.04;70.38;101659.53;4974070;28;20387;-65
2021/11/07 03:48:56;;;;;;;16.52;2.88;;;;;;;11.05;71.15;101655.94;4958150;28;20050;-64
2021/11/07 03:51:24;;;;;;;13.32;2.50;;;;;;;11.02;71.43;101651.59;4975703;28;20097;-65
2021/11/07 03:53:49;;;;;;;17.10;2.47;;;;;;;10.97;71.06;101656.19;4973707;28;20027;-69
2021/11/07 03:56:14;;;;;;;13.20;2.63;;;;;;;10.89;71.81;101645.84;4975547;28;20031;-65
2021/11/07 03:58:40;;;;;;;16.35;4.03;;;;;;;10.89;71.17;101635.25;4973700;28;20085;-65
2021/11/07 04:01:05;;;;;;;14.23;3.10;;;;;;;10.87;72.49;101630.91;4975415;28;20031;-64
2021/11/07 04:03:31;;;;;;;17.15;2.58;;;;;;;10.81;73.40;101635.50;4973844;28;20129;-64
2021/11/07 04:05:56;;;;;;;13.52;2.50;;;;;;;10.73;73.82;101644.63;4975259;28;20500;-64
2021/11/07 04:08:21;;;;;;;15.70;2.60;;;;;;;10.71;74.03;101643.81;4973884;28;20097;-65
2021/11/07 04:10:47;;;;;;;13.65;2.60;;;;;;;10.68;74.91;101650.09;4975066;28;20049;-65
2021/11/07 04:13:12;;;;;;;16.55;2.38;;;;;;;10.67;75.64;101645.69;4975296;28;20031;-65
2021/11/07 04:15:37;;;;;;;14.25;2.90;;;;;;;10.63;75.04;101652.88;4973502;28;20443;-65
2021/11/07 04:18:05;;;;;;;15.23;2.72;;;;;;;10.71;74.95;101649.97;4974348;28;20050;-64
2021/11/07 04:20:30;;;;;;;16.95;2.92;;;;;;;10.78;75.44;101651.53;4974445;28;20030;-64
2021/11/07 04:22:56;;;;;;;16.80;4.43;;;;;;;10.83;75.47;101630.16;4975029;28;20041;-64
2021/11/07 04:25:21;;;;;;;13.73;3.17;;;;;;;10.86;75.67;101647.72;4973003;28;20042;-64
2021/11/07 04:27:47;;;;;;;17.17;3.53;;;;;;;10.83;76.63;101654.00;4974859;28;20471;-64
2021/11/07 04:30:13;;;;;;;16.40;2.85;;;;;;;10.79;77.05;101650.59;4973298;28;20391;-66
2021/11/07 04:32:38;;;;;;;12.35;2.88;;;;;;;10.75;77.70;101632.19;4974861;28;20073;-65
2021/11/07 04:35:07;;;;;;;20.00;3.38;;;;;;;10.70;77.61;101650.88;4973239;28;20050;-65
2021/11/07 04:37:33;;;;;;;19.38;3.63;;;;;;;10.68;76.75;101665.97;4975016;28;20037;-64
2021/11/07 04:39:58;;;;;;;15.13;3.08;;;;;;;10.70;75.90;101665.94;4973046;28;20033;-65
2021/11/07 04:42:24;;;;;;;15.82;3.60;;;;;;;10.70;74.92;101650.88;4974618;28;20470;-66
2021/11/07 04:44:49;;;;;;;15.80;3.95;;;;;;;10.65;74.54;101644.88;4974657;28;20065;-66
2021/11/07 04:47:15;;;;;;;15.50;3.10;;;;;;;10.51;76.04;101655.03;4972857;28;20038;-65
2021/11/07 04:49:40;;;;;;;16.05;3.10;;;;;;;10.37;75.88;101619.28;4974541;28;20034;-65
2021/11/07 04:52:06;;;;;;;13.05;2.45;;;;;;;10.32;75.70;101626.47;4971892;28;20045;-67
2021/11/07 04:54:32;;;;;;;16.60;3.65;;;;;;;10.22;76.09;101649.72;4974824;28;20074;-66
2021/11/07 04:56:58;;;;;;;14.30;3.15;;;;;;;10.20;74.91;101655.97;4972690;28;20035;-65
2021/11/07 04:59:24;;;;;;;12.32;2.85;;;;;;;10.23;74.81;101650.56;4974664;28;20027;-65
2021/11/07 05:01:50;;;;;;;16.52;3.33;;;;;;;10.22;74.73;101635.59;4972910;28;20435;-65
2021/11/07 05:04:16;;;;;;;16.20;2.78;;;;;;;10.23;74.41;101626.75;4974248;28;20051;-66
2021/11/07 05:06:41;;;;;;;13.77;2.55;;;;;;;10.28;74.26;101643.34;4974146;28;20077;-66
2021/11/07 05:09:06;;;;;;;15.65;2.90;;;;;;;10.29;72.66;101643.31;4972629;28;20039;-65
2021/11/07 05:11:32;;;;;;;12.52;3.28;;;;;;;10.29;72.25;101650.38;4972703;28;20050;-69
2021/11/07 05:13:59;;;;;;;16.80;3.08;;;;;;;10.28;72.79;101644.25;4954926;29;20472;-65
2021/11/07 05:16:24;;;;;;;16.85;2.60;;;;;;;10.26;72.19;101640.75;4954656;29;20475;-65
2021/11/07 05:18:50;;;;;;;16.55;2.92;;;;;;;10.26;71.91;101647.84;4955871;28;20043;-65
2021/11/07 05:21:15;;;;;;;13.13;2.38;;;;;;;10.28;70.29;101636.28;4954563;29;20027;-65
2021/11/07 05:23:41;;;;;;;11.30;2.70;;;;;;;10.25;71.02;101640.81;4955796;28;20039;-65
2021/11/07 05:26:06;;;;;;;12.00;2.60;;;;;;;10.17;70.48;101644.53;4954632;29;20468;-65
2021/11/07 05:28:34;;;;;;;11.38;2.78;;;;;;;10.08;71.20;101654.56;4955746;28;20494;-65
2021/11/07 05:31:00;;;;;;;15.73;2.70;;;;;;;9.99;71.68;101642.47;4954862;29;20031;-65
2021/11/07 05:33:26;;;;;;;13.25;2.63;;;;;;;9.95;71.40;101660.19;4955605;28;20361;-64
2021/11/07 05:35:52;;;;;;;15.15;2.70;;;;;;;9.89;71.57;101662.16;4954433;29;20059;-65
2021/11/07 05:38:17;;;;;;;13.90;2.58;;;;;;;9.81;70.80;101660.59;4954504;29;20061;-65
2021/11/07 05:40:43;;;;;;;18.08;2.80;;;;;;;9.72;72.58;101662.63;4955850;28;20031;-66
2021/11/07 05:43:09;;;;;;;16.08;2.70;;;;;;;9.73;72.74;101659.97;4954728;29;20061;-65
2021/11/07 05:45:34;;;;;;;15.80;2.78;;;;;;;9.65;73.39;101669.88;4955618;28;20099;-65
2021/11/07 05:47:59;;;;;;;18.95;2.40;;;;;;;9.65;73.89;101661.94;4954783;29;20043;-65
2021/11/07 05:50:25;;;;;;;13.00;2.83;;;;;;;9.69;74.09;101653.00;4955422;28;20472;-65
2021/11/07 05:52:51;;;;;;;14.88;2.88;;;;;;;9.69;74.92;101660.94;4954315;29;20047;-65
2021/11/07 05:55:17;;;;;;;15.90;2.83;;;;;;;9.72;75.48;101659.97;4964008;28;20550;-65
2021/11/07 05:57:43;;;;;;;18.60;3.10;;;;;;;9.73;75.49;101659.97;4973372;28;20042;-65
2021/11/07 06:00:11;;;;;;;13.68;2.95;;;;;;;9.76;76.17;101670.44;4973025;28;20078;-66
2021/11/07 06:02:37;;;;;;;15.80;3.10;;;;;;;9.72;76.29;101681.13;4972061;28;20545;-66
2021/11/07 06:05:03;;;;;;;17.52;2.58;;;;;;;9.67;76.09;101676.84;4976058;28;20045;-66
2021/11/07 06:07:28;;;;;;;17.35;2.97;;;;;;;9.70;75.05;101683.84;4977617;28;20081;-65
2021/11/07 06:09:54;;;;;;;16.77;3.42;;;;;;;9.70;74.12;101675.91;4977485;28;20487;-66
2021/11/07 06:12:19;;;;;;;19.17;3.60;;;;;;;9.74;74.31;101684.63;4975722;28;20029;-65
2021/11/07 06:14:44;;;;;;;15.40;3.00;;;;;;;9.70;74.87;101691.75;4977419;28;20027;-65
2021/11/07 06:17:10;;;;;;;16.23;2.70;;;;;;;9.65;75.79;101670.75;4975516;28;20034;-65
2021/11/07 06:19:35;;;;;;;20.83;2.92;;;;;;;9.59;75.92;101662.09;4977639;28;20256;-65
2021/11/07 06:22:03;;;;;;;18.73;3.65;;;;;;;9.57;76.17;101678.00;4975824;28;20047;-65
2021/11/07 06:24:29;;;;;;;12.07;2.90;;;;;;;9.58;75.85;101687.69;4977113;28;20117;-65
2021/11/07 06:26:57;;;;;;;19.08;2.80;;;;;;;9.56;75.51;101697.44;4975493;28;20555;-66
2021/11/07 06:29:23;;;;;;;17.30;2.35;;;;;;;9.64;75.02;101676.94;4976991;28;20034;-66
2021/11/07 06:31:52;;;;;;;11.55;2.80;;;;;;;9.67;74.86;101690.06;4976984;28;20035;-66
2021/11/07 06:34:19;;;;;;;16.55;2.75;;;;;;;9.65;75.17;101668.13;4975371;28;20503;-66
2021/11/07 06:36:45;;;;;;;19.98;3.47;;;;;;;9.66;75.24;101677.75;4976908;28;20125;-66
2021/11/07 06:39:10;;;;;;;15.68;3.00;;;;;;;9.61;75.63;101689.38;4975163;28;20057;-65
2021/11/07 06:41:36;;;;;;;21.65;3.28;;;;;;;9.62;75.35;101685.84;4977058;28;20066;-65
2021/11/07 06:44:01;;;;;;;17.67;3.45;;;;;;;9.61;76.01;101682.31;4975217;28;20031;-65
2021/11/07 06:46:27;;;;;;;15.88;2.83;;;;;;;9.57;75.78;101693.88;4976063;28;20065;-65
2021/11/07 06:48:52;;;;;;;14.98;3.13;;;;;;;9.59;74.83;101693.84;4976753;28;20031;-66
2021/11/07 06:51:18;;;;;;;9.60;2.40;;;;;;;9.61;75.21;101690.25;4976715;28;20077;-66
2021/11/07 06:53:45;;;;;;;17.08;2.70;;;;;;;9.57;75.24;101696.53;4974735;28;20158;-66
2021/11/07 06:56:11;;;;;;;16.88;2.92;;;;;;;9.54;74.78;101691.34;4969840;28;20062;-68
2021/11/07 06:58:36;;;;;;;11.93;2.70;;;;;;;9.49;75.52;101690.59;4958281;28;20478;-66
2021/11/07 07:01:02;;;;;;;18.02;2.67;;;;;;;9.45;76.45;101697.72;4957577;29;20369;-66
2021/11/07 07:03:27;;;;;;;12.65;2.63;;;;;;;9.51;76.00;101700.22;4974460;28;20042;-66
2021/11/07 07:05:53;;;;;;;15.82;3.17;;;;;;;9.60;76.41;101696.44;4976318;28;20414;-71
2021/11/07 07:08:22;;;;;;;15.75;3.03;;;;;;;9.67;75.84;101689.22;4976660;28;20034;-66
2021/11/07 07:11:07;;;;;;;16.60;3.20;;;;;;;9.71;75.65;101696.16;4975929;28;20517;-67
2021/11/07 07:13:40;;;;;;;16.65;2.90;;;;;;;9.75;75.70;101702.22;4975865;28;20023;-67
2021/11/07 07:22:02;;;;;;;12.93;3.28;;;;;;;9.68;75.81;101699.75;4839783;29;20045;-65
2021/11/07 07:24:59;;;;;;;13.32;3.03;;;;;;;9.67;75.81;101705.94;4858148;29;20076;-63
2021/11/07 07:30:03;;;;;;;14.55;2.65;;;;;;;9.64;75.73;101705.16;4859626;29;20039;-66
2021/11/07 07:32:46;;;;;;;14.82;2.70;;;;;;;9.60;76.29;101708.78;4860501;29;20052;-65
2021/11/07 07:35:13;;;;;;;10.38;2.28;;;;;;;9.58;75.56;101703.56;4867590;29;20068;-65
2021/11/07 07:37:39;;;;;;;20.80;4.03;;;;;;;9.65;74.99;101709.53;4873975;29;20067;-65
2021/11/07 07:40:06;;;;;;;16.48;2.95;;;;;;;9.64;75.87;101710.44;4855784;29;20065;-65
2021/11/07 07:42:32;;;;;;;12.50;2.67;;;;;;;9.68;75.30;101712.97;4845736;29;20040;-66
2021/11/07 07:45:00;;;;;;;14.70;3.15;;;;;;;9.80;74.54;101705.63;4858419;29;20045;-64
2021/11/07 07:47:25;;;;;;;13.45;3.00;;;;;;;9.84;75.14;101720.47;4859500;29;20029;-64
2021/11/07 07:49:51;;;;;;;12.40;2.53;;;;;;;9.90;74.64;101715.03;4857540;29;20060;-66
2021/11/07 07:52:21;;;;;;;20.42;4.35;;;;;;;9.97;74.25;101713.97;4841176;29;20499;-66
2021/11/07 07:54:47;;;;;;;21.35;3.50;;;;;;;10.05;74.67;101718.16;4845426;29;20034;-65
2021/11/07 07:57:12;;;;;;;13.30;4.97;;;;;;;10.16;73.28;101713.41;4922086;28;20046;-65
2021/11/07 07:59:38;;;;;;;16.55;2.65;;;;;;;10.27;73.43;101721.91;4961049;28;20031;-64
2021/11/07 08:02:03;;;;;;;14.75;3.33;;;;;;;10.43;71.60;101732.06;4974460;28;20054;-66
2021/11/07 08:04:29;;;;;;;16.88;3.78;;;;;;;10.47;71.95;101731.06;4971857;28;20121;-66
2021/11/07 08:06:55;;;;;;;13.55;2.78;;;;;;;10.47;72.11;101724.00;4956554;28;20036;-66
2021/11/07 08:09:21;;;;;;;15.30;2.83;;;;;;;10.48;72.44;101725.72;4957374;28;20188;-65
2021/11/07 08:11:46;;;;;;;16.67;2.90;;;;;;;10.44;73.00;101725.88;4956089;28;20024;-65
2021/11/07 08:14:12;;;;;;;22.10;8.00;;;;;;;10.38;72.97;101723.41;4960246;28;20026;-66
2021/11/07 08:16:38;;;;;;;20.75;6.03;;;;;;;10.38;72.69;101723.41;4965894;28;20114;-64
2021/11/07 08:19:03;;;;;;;15.38;4.72;;;;;;;10.46;72.23;101718.72;4957330;28;20023;-67
2021/11/07 08:21:33;;;;;;;17.17;3.67;;;;;;;10.52;73.11;101723.00;4955614;28;20039;-66
2021/11/07 08:24:00;;;;;;;15.65;2.63;;;;;;;10.51;72.65;101727.41;4961167;28;20030;-66
2021/11/07 08:26:25;;;;;;;16.33;3.22;;;;;;;10.44;72.29;101723.22;4950667;28;20474;-64
2021/11/07 08:28:53;;;;;;;16.73;2.78;;;;;;;10.43;72.29;101722.34;4956818;28;20027;-65
2021/11/07 08:31:22;;;;;;;17.23;2.92;;;;;;;10.44;72.91;101721.44;4960404;28;20031;-66
2021/11/07 08:33:48;;;;;;;8.88;2.33;;;;;;;10.44;73.22;101732.03;4967128;28;20030;-66
2021/11/07 08:36:26;;;;;;;17.00;3.05;;;;;;;10.62;72.00;101729.75;4969366;28;20027;-65
2021/11/07 08:39:02;;;;;;;16.50;3.55;;;;;;;10.82;71.75;101735.28;4970563;28;20110;-65
2021/11/07 08:41:29;;;;;;;22.25;2.90;;;;;;;11.07;71.52;101729.19;4974550;28;20015;-65
2021/11/07 09:05:18;;;;;;;17.25;3.30;;;;;;;13.55;61.22;101727.94;4914762;29;20163;-66
2021/11/07 09:08:02;;;;;;;18.58;3.22;;;;;;;14.32;58.94;101727.19;4914515;29;20167;-66
2021/11/07 09:10:32;;;;;;;18.40;3.90;;;;;;;15.00;55.08;101725.75;4914431;29;20152;-66
2021/11/07 09:12:58;;;;;;;11.02;2.60;;;;;;;15.51;54.32;101732.09;4914943;29;20036;-67
2021/11/07 09:15:25;;;;;;;18.23;3.60;;;;;;;15.45;53.46;101731.53;4914334;29;20040;-67
2021/11/07 09:17:52;;;;;;;12.85;3.00;;;;;;;14.10;56.34;101751.25;4914216;29;20051;-63
2021/11/07 09:20:25;;;;;;;13.75;3.17;;;;;;;13.52;59.15;101733.41;4914370;29;20055;-66
2021/11/07 09:23:03;;;;;;;15.43;3.40;;;;;;;13.97;58.37;101737.63;4919444;29;20032;-66
2021/11/07 09:25:35;;;;;;;18.42;3.15;;;;;;;14.79;54.54;101727.69;4955101;29;20082;-68
2021/11/07 09:38:49;;;;;;;14.98;3.10;;;;;;;14.22;56.22;101732.06;4906640;29;20046;-68
2021/11/07 09:43:53;;;;;;;14.88;3.40;;;;;;;15.19;53.00;101733.72;4909720;29;20036;-66
2021/11/07 09:48:51;;;;;;;13.65;3.75;;;;;;;14.47;55.57;101738.03;4906064;29;20036;-66
2021/11/07 09:51:18;;;;;;;19.45;4.13;;;;;;;14.02;56.19;101740.09;4906196;29;20051;-66
2021/11/07 09:53:49;;;;;;;16.35;5.88;;;;;;;14.49;55.48;101737.03;4913631;29;20043;-66
2021/11/07 09:56:15;;;;;;;14.00;3.20;;;;;;;14.91;55.33;101745.72;4913740;29;20032;-66
2021/11/07 09:58:44;;;;;;;17.33;3.47;;;;;;;15.37;53.97;101742.59;4910718;29;20548;-66
2021/11/07 10:01:10;;;;;;;15.55;3.38;;;;;;;16.13;50.54;101733.38;4907055;29;20499;-65
2021/11/07 10:03:40;;;;;;;13.55;3.40;;;;;;;16.65;50.80;101734.94;4896513;29;20049;-66
2021/11/07 10:06:23;;;;;;;13.45;3.40;;;;;;;16.43;48.86;101749.50;4957961;28;20049;-65
2021/11/07 10:08:49;;;;;;;12.20;2.72;;;;;;;16.77;49.92;101750.31;4968153;28;20023;-66
2021/11/07 10:11:14;;;;;;;13.73;3.28;;;;;;;17.03;48.35;101751.56;4959053;28;20494;-66
2021/11/07 10:13:56;;;;;;;14.05;3.22;;;;;;;16.13;49.38;101752.06;4953661;28;20019;-66
2021/11/07 10:16:40;;;;;;;13.90;3.33;;;;;;;15.31;52.73;101749.13;4972710;28;20078;-66
2021/11/07 10:19:22;;;;;;;11.52;3.97;;;;;;;14.89;53.23;101750.28;4972332;28;20033;-67
2021/11/07 10:21:49;;;;;;;14.20;3.08;;;;;;;14.26;55.66;101751.44;4972236;28;20034;-67
2021/11/07 10:24:20;;;;;;;14.65;3.38;;;;;;;14.11;55.61;101763.63;4973519;28;20031;-67
2021/11/07 10:26:51;;;;;;;16.20;3.03;;;;;;;13.46;57.65;101763.78;4965556;28;20034;-67
2021/11/07 10:29:45;;;;;;;14.50;2.80;;;;;;;13.20;58.26;101743.56;4954871;28;20372;-66
2021/11/07 10:32:34;;;;;;;12.35;2.63;;;;;;;13.22;58.55;101744.34;4953733;28;20453;-65
2021/11/07 10:54:11;;;;;;;15.43;3.65;;;;;;;14.55;54.18;101765.19;4971268;28;20130;-66
2021/11/07 10:56:36;;;;;;;15.13;3.10;;;;;;;13.40;57.40;101751.63;4964922;28;20027;-66
2021/11/07 10:59:12;;;;;;;17.67;3.53;;;;;;;13.54;57.71;101759.00;4975725;28;20101;-66
2021/11/07 11:01:38;;;;;;;12.88;2.90;;;;;;;13.47;57.38;101749.56;4973095;28;20018;-66
2021/11/07 11:04:04;;;;;;;18.08;3.45;;;;;;;12.93;59.35;101751.75;4973619;28;20085;-66
2021/11/07 11:06:29;;;;;;;18.15;5.97;;;;;;;13.13;58.99;101756.22;4966574;28;20027;-66
2021/11/07 11:09:02;;;;;;;15.80;4.25;;;;;;;13.76;57.63;101753.63;4976301;28;20046;-66
2021/11/07 11:11:35;;;;;;;25.05;7.60;;;;;;;14.88;53.65;101735.22;4959702;28;20096;-66
2021/11/07 11:19:50;;;;;;;16.88;4.95;;;;;;;16.81;47.36;101751.88;4975830;28;20400;-66
2021/11/07 11:22:48;;;;;;;17.48;4.30;;;;;;;16.75;47.47;101740.66;4963975;28;20031;-66
2021/11/07 11:35:43;;;;;;;19.20;3.97;;;;;;;14.42;54.56;101754.25;4967393;28;20429;-66
2021/11/07 11:38:31;;;;;;;24.10;3.83;;;;;;;13.65;56.83;101757.69;4955877;29;20073;-66
2021/11/07 11:40:59;;;;;;;17.02;3.28;;;;;;;13.33;58.29;101738.59;4966295;28;20118;-66
2021/11/07 11:44:02;;;;;;;16.90;3.03;;;;;;;13.58;57.92;101755.28;4973087;28;20504;-66
2021/11/07 11:47:00;;;;;;;16.02;3.33;;;;;;;13.72;58.17;101759.13;4957139;28;20097;-66
2021/11/07 11:55:08;;;;;;;19.42;3.97;;;;;;;13.18;59.28;101753.41;4957601;28;20129;-66
2021/11/07 12:08:06;;;;;;;15.77;3.10;;;;;;;13.13;58.72;101739.44;4961872;28;20049;-66
2021/11/07 12:10:40;;;;;;;22.15;3.70;;;;;;;12.98;59.15;101754.19;4975411;28;20121;-66
2021/11/07 12:13:40;;;;;;;17.20;3.45;;;;;;;13.86;58.11;101742.56;4974899;28;20034;-66
2021/11/07 12:16:28;;;;;;;17.73;3.63;;;;;;;15.37;53.11;101738.13;4966010;28;20034;-66
2021/11/07 12:19:09;;;;;;;16.85;3.63;;;;;;;15.53;51.95;101724.84;4955247;29;20042;-66
2021/11/07 12:21:54;;;;;;;19.00;3.67;;;;;;;15.31;52.82;101733.09;4967181;28;20089;-66
2021/11/07 12:24:24;;;;;;;24.23;4.32;;;;;;;14.59;55.73;101737.44;4974934;28;20105;-66
2021/11/07 12:26:50;;;;;;;20.15;3.22;;;;;;;14.01;56.39;101733.88;4971786;28;20439;-66
2021/11/07 12:29:42;;;;;;;17.85;4.15;;;;;;;13.46;58.71;101736.31;4969529;28;20019;-66
2021/11/07 12:32:10;;;;;;;24.02;3.50;;;;;;;12.86;60.39;101735.16;4964453;28;20034;-66
2021/11/07 12:34:56;;;;;;;21.35;3.50;;;;;;;12.55;61.87;101748.81;4974593;28;20035;-66
2021/11/07 12:40:39;;;;;;;20.20;3.60;;;;;;;13.44;60.85;101741.72;4970976;28;20053;-66
2021/11/07 12:43:10;;;;;;;23.00;4.20;;;;;;;13.67;58.61;101731.84;4972315;28;20022;-66
2021/11/07 12:45:40;;;;;;;21.75;3.42;;;;;;;13.48;59.15;101737.97;4965034;28;20106;-66
2021/11/07 12:48:08;;;;;;;17.48;3.50;;;;;;;12.87;61.70;101747.53;4955388;28;20488;-66
2021/11/07 12:50:55;;;;;;;19.52;4.10;;;;;;;12.63;62.79;101744.03;4954793;28;20039;-66
2021/11/07 12:53:25;;;;;;;17.88;4.20;;;;;;;12.42;64.31;101743.94;4972387;28;20030;-66
2021/11/07 12:55:51;;;;;;;21.38;3.60;;;;;;;12.33;65.56;101744.31;4974393;28;20049;-66
2021/11/07 12:58:17;;;;;;;20.25;4.00;;;;;;;12.39;65.60;101753.81;4964242;28;20434;-66
2021/11/07 13:00:43;;;;;;;34.90;4.03;;;;;;;12.47;65.73;101741.13;4956132;28;20468;-65
2021/11/07 13:03:10;;;;;;;19.98;4.05;;;;;;;12.45;65.21;101749.16;4967861;28;20039;-66
2021/11/07 13:05:38;;;;;;;26.17;3.97;;;;;;;12.24;65.19;101756.13;4973996;28;20030;-65
2021/11/07 13:08:06;;;;;;;18.80;3.60;;;;;;;11.92;66.81;101754.63;4973876;28;20187;-66
2021/11/07 13:26:49;;;;;;;20.60;3.42;;;;;;;11.61;63.72;101745.06;4974285;28;20037;-66
2021/11/07 13:32:00;;;;;;;17.60;3.30;;;;;;;11.70;68.77;101743.88;4966657;28;20387;-65
2021/11/07 13:34:27;;;;;;;25.05;4.32;;;;;;;11.91;67.82;101740.47;4959631;28;20550;-66
2021/11/07 13:36:55;;;;;;;23.80;4.15;;;;;;;12.19;65.41;101739.50;4973141;28;20058;-66
2021/11/07 13:39:32;;;;;;;22.77;4.13;;;;;;;12.13;65.95;101737.06;4971967;28;20066;-67
2021/11/07 13:42:09;;;;;;;24.08;3.85;;;;;;;11.69;65.40;101750.13;4972382;28;20113;-66
2021/11/07 13:45:00;;;;;;;21.52;3.42;;;;;;;11.53;66.43;101745.34;4965129;28;20034;-66
2021/11/07 13:47:34;;;;;;;26.83;3.33;;;;;;;11.72;65.83;101737.59;4954265;29;20031;-66
2021/11/07 13:50:01;;;;;;;24.63;4.00;;;;;;;11.88;65.78;101747.69;4967796;28;20033;-66
2021/11/07 13:52:31;;;;;;;26.20;3.95;;;;;;;12.16;65.27;101750.25;4966247;28;20038;-66
2021/11/07 13:54:56;;;;;;;26.65;4.15;;;;;;;12.34;64.23;101747.81;4973574;28;20046;-66